createdAt,value
2023-02-09T00:01:40.660Z,50.30
2023-02-09T00:04:08.027Z,47.00
2023-02-09T00:06:35.406Z,48.50
2023-02-09T00:09:05.071Z,52.70
2023-02-09T00:11:52.437Z,54.55
2023-02-09T00:14:21.907Z,48.33
2023-02-09T00:16:50.066Z,49.20
2023-02-09T00:19:17.672Z,55.10
2023-02-09T00:21:45.201Z,46.75
2023-02-09T00:24:12.903Z,50.95
2023-02-09T00:26:40.510Z,48.45
2023-02-09T00:29:08.040Z,46.70
2023-02-09T00:31:35.762Z,53.63
2023-02-09T00:34:03.710Z,44.83
2023-02-09T00:36:31.152Z,47.30
2023-02-09T00:38:58.520Z,49.92
2023-02-09T00:41:45.896Z,50.75
2023-02-09T00:44:13.300Z,45.20
2023-02-09T00:46:40.698Z,49.42
2023-02-09T00:49:10.580Z,54.88
2023-02-09T00:51:37.919Z,50.50
2023-02-09T00:54:05.279Z,55.03
2023-02-09T00:56:35.052Z,49.08
2023-02-09T00:59:02.518Z,46.28
2023-02-09T01:01:29.970Z,42.22
2023-02-09T01:03:57.435Z,47.10
2023-02-09T01:06:24.836Z,43.30
2023-02-09T01:08:52.216Z,47.67
2023-02-09T01:11:19.933Z,49.78
2023-02-09T01:13:47.851Z,44.75
2023-02-09T01:16:16.623Z,47.22
2023-02-09T01:18:44.191Z,44.17
2023-02-09T01:21:12.909Z,51.70
2023-02-09T01:23:40.250Z,46.33
2023-02-09T01:26:09.136Z,56.40
2023-02-09T01:28:37.152Z,49.65
2023-02-09T01:31:06.038Z,48.30
2023-02-09T01:33:33.600Z,47.38
2023-02-09T01:36:04.159Z,47.35
2023-02-09T01:38:31.691Z,41.22
2023-02-09T01:40:59.049Z,48.40
2023-02-09T01:43:26.412Z,44.85
2023-02-09T01:45:55.682Z,47.42
2023-02-09T01:48:26.538Z,55.50
2023-02-09T01:50:55.862Z,48.70
2023-02-09T01:53:23.300Z,51.05
2023-02-09T01:55:52.792Z,50.42
2023-02-09T01:58:21.168Z,50.63
2023-02-09T02:00:48.922Z,52.00
2023-02-09T02:03:17.987Z,54.15
2023-02-09T02:05:46.592Z,51.38
2023-02-09T02:08:18.019Z,58.38
2023-02-09T02:10:45.813Z,58.15
2023-02-09T02:13:13.477Z,52.28
2023-02-09T02:15:57.713Z,63.35
2023-02-09T02:18:45.001Z,60.63
2023-02-09T02:21:32.251Z,71.15
2023-02-09T02:24:16.316Z,61.15
2023-02-09T02:27:00.419Z,65.22
2023-02-09T02:29:47.666Z,64.22
2023-02-09T02:32:34.942Z,64.28
2023-02-09T02:35:05.885Z,60.75
2023-02-09T02:37:53.194Z,57.75
2023-02-09T02:40:40.402Z,62.42
2023-02-09T02:43:25.819Z,60.60
2023-02-09T02:45:59.531Z,71.97
2023-02-09T02:48:46.776Z,71.32
2023-02-09T02:51:17.946Z,65.38
2023-02-09T02:53:48.953Z,64.82
2023-02-09T02:56:17.378Z,64.07
2023-02-09T02:58:46.366Z,68.00
2023-02-09T03:01:15.661Z,66.50
2023-02-09T03:03:44.762Z,63.60
2023-02-09T03:06:13.032Z,73.68
2023-02-09T03:08:48.743Z,64.68
2023-02-09T03:11:17.168Z,69.80
2023-02-09T03:14:01.052Z,69.22
2023-02-09T03:16:33.669Z,65.95
2023-02-09T03:19:20.847Z,69.88
2023-02-09T03:22:08.050Z,66.97
2023-02-09T03:24:55.250Z,65.82
2023-02-09T03:27:24.399Z,59.90
2023-02-09T03:29:54.277Z,65.57
2023-02-09T03:32:22.248Z,65.55
2023-02-09T03:34:49.935Z,69.05
2023-02-09T03:37:18.424Z,69.30
2023-02-09T03:39:45.695Z,61.92
2023-02-09T03:42:13.027Z,68.07
2023-02-09T03:44:40.370Z,74.65
2023-02-09T03:47:09.149Z,68.57
2023-02-09T03:49:39.363Z,71.65
2023-02-09T03:52:07.594Z,73.05
2023-02-09T03:54:35.705Z,68.35
2023-02-09T03:57:03.058Z,63.13
2023-02-09T03:59:30.551Z,67.85
2023-02-09T04:01:58.951Z,65.65
2023-02-09T04:04:27.035Z,72.13
2023-02-09T04:06:54.885Z,69.57
2023-02-09T04:09:22.392Z,67.35
2023-02-09T04:11:49.955Z,71.05
2023-02-09T04:14:17.373Z,75.22
2023-02-09T04:16:44.716Z,71.78
2023-02-09T04:19:12.490Z,71.53
2023-02-09T04:21:40.168Z,73.65
2023-02-09T04:24:07.894Z,71.93
2023-02-09T04:26:35.250Z,75.50
2023-02-09T04:29:02.634Z,71.00
2023-02-09T04:31:30.071Z,67.43
2023-02-09T04:33:57.446Z,71.90
2023-02-09T04:36:24.780Z,68.97
2023-02-09T04:38:52.223Z,75.60
2023-02-09T04:41:19.681Z,65.18
2023-02-09T04:43:47.361Z,66.03
2023-02-09T04:46:15.392Z,78.43
2023-02-09T04:48:42.750Z,67.15
2023-02-09T04:51:10.132Z,71.18
2023-02-09T04:53:37.568Z,71.63
2023-02-09T04:56:05.156Z,71.97
2023-02-09T04:58:52.413Z,70.43
2023-02-09T05:01:21.237Z,67.40
2023-02-09T05:03:48.732Z,69.50
2023-02-09T05:06:16.097Z,61.20
2023-02-09T05:08:44.483Z,60.13
2023-02-09T05:11:12.480Z,66.10
2023-02-09T05:13:39.814Z,63.83
2023-02-09T05:16:08.077Z,68.78
2023-02-09T05:18:35.903Z,64.28
2023-02-09T05:21:03.283Z,65.60
2023-02-09T05:23:30.649Z,70.00
2023-02-09T05:25:58.036Z,57.88
2023-02-09T05:28:25.945Z,65.65
2023-02-09T05:30:54.138Z,64.60
2023-02-09T05:33:23.219Z,68.63
2023-02-09T05:35:51.513Z,67.78
2023-02-09T05:38:19.120Z,66.38
2023-02-09T05:40:47.010Z,71.10
2023-02-09T05:43:14.692Z,69.05
2023-02-09T05:45:42.091Z,65.35
2023-02-09T05:48:09.465Z,67.43
2023-02-09T05:50:36.837Z,66.07
2023-02-09T05:53:04.126Z,65.55
2023-02-09T05:55:31.444Z,65.68
2023-02-09T05:57:58.718Z,62.95
2023-02-09T06:00:27.177Z,62.38
2023-02-09T06:02:54.444Z,66.22
2023-02-09T06:05:22.126Z,66.78
2023-02-09T06:07:49.764Z,73.13
2023-02-09T06:10:17.760Z,58.72
2023-02-09T06:12:45.092Z,75.13
2023-02-09T06:15:12.704Z,70.10
2023-02-09T06:17:40.033Z,65.57
2023-02-09T06:20:07.835Z,73.78
2023-02-09T06:22:35.226Z,66.15
2023-02-09T06:25:02.570Z,68.88
2023-02-09T06:27:29.913Z,68.00
2023-02-09T06:29:57.261Z,66.93
2023-02-09T06:32:24.554Z,65.40
2023-02-09T06:34:51.911Z,65.38
2023-02-09T06:37:19.226Z,65.05
2023-02-09T06:39:46.501Z,63.45
2023-02-09T06:42:13.868Z,65.55
2023-02-09T06:44:41.190Z,57.83
2023-02-09T06:47:08.594Z,67.88
2023-02-09T06:49:35.930Z,65.57
2023-02-09T06:52:03.528Z,68.85
2023-02-09T06:54:30.902Z,67.75
2023-02-09T06:56:58.216Z,67.32
2023-02-09T06:59:25.567Z,67.90
2023-02-09T07:01:54.995Z,62.72
2023-02-09T07:04:22.690Z,62.72
2023-02-09T07:06:50.081Z,68.85
2023-02-09T07:09:17.426Z,66.57
2023-02-09T07:11:44.696Z,66.63
2023-02-09T07:14:12.030Z,67.18
2023-02-09T07:16:39.359Z,63.60
2023-02-09T07:19:06.666Z,63.22
2023-02-09T07:21:33.992Z,56.88
2023-02-09T07:24:01.295Z,64.90
2023-02-09T07:26:28.674Z,67.65
2023-02-09T07:28:55.989Z,64.65
2023-02-09T07:31:23.498Z,59.92
2023-02-09T07:33:50.895Z,64.07
2023-02-09T07:36:19.444Z,62.25
2023-02-09T07:38:46.939Z,60.80
2023-02-09T07:41:16.042Z,61.17
2023-02-09T07:43:43.426Z,55.92
2023-02-09T07:46:11.264Z,57.75
2023-02-09T07:48:38.620Z,52.17
2023-02-09T07:51:06.427Z,52.95
2023-02-09T07:53:34.180Z,46.22
2023-02-09T07:56:01.550Z,60.50
2023-02-09T07:58:28.905Z,49.03
2023-02-09T08:00:56.255Z,50.88
2023-02-09T08:03:25.124Z,52.97
2023-02-09T08:06:12.488Z,43.03
2023-02-09T08:08:39.870Z,40.05
2023-02-09T08:11:07.210Z,47.00
2023-02-09T08:13:38.022Z,41.60
2023-02-09T08:16:06.961Z,45.70
2023-02-09T08:18:37.424Z,41.53
2023-02-09T08:21:06.072Z,43.33
2023-02-09T08:23:35.061Z,46.70
2023-02-09T08:26:05.382Z,44.15
2023-02-09T08:28:43.730Z,47.58
2023-02-09T08:31:13.857Z,48.85
2023-02-09T08:33:41.406Z,49.58
2023-02-09T08:36:09.298Z,43.85
2023-02-09T08:38:36.685Z,48.20
2023-02-09T08:41:05.096Z,48.03
2023-02-09T08:43:32.516Z,42.90
2023-02-09T08:46:08.632Z,44.60
2023-02-09T08:48:37.177Z,44.75
2023-02-09T08:51:04.795Z,48.40
2023-02-09T08:53:32.520Z,45.85
2023-02-09T08:55:59.915Z,46.83
2023-02-09T08:58:27.615Z,43.38
2023-02-09T09:01:00.073Z,37.78
2023-02-09T09:03:30.102Z,44.47
2023-02-09T09:05:59.160Z,50.58
2023-02-09T09:08:26.793Z,46.80
2023-02-09T09:10:54.281Z,49.97
2023-02-09T09:13:21.670Z,47.20
2023-02-09T09:15:49.240Z,43.40
2023-02-09T09:18:17.035Z,47.55
2023-02-09T09:20:44.379Z,49.15
2023-02-09T09:23:12.063Z,55.90
2023-02-09T09:25:40.040Z,54.97
2023-02-09T09:28:07.789Z,56.05
2023-02-09T09:30:35.330Z,48.55
2023-02-09T09:33:04.601Z,51.67
2023-02-09T09:35:32.029Z,52.25
2023-02-09T09:37:59.396Z,55.58
2023-02-09T09:40:29.356Z,58.95
2023-02-09T09:42:58.292Z,50.30
2023-02-09T09:45:27.273Z,61.58
2023-02-09T09:47:56.391Z,49.67
2023-02-09T09:50:43.543Z,49.90
2023-02-09T09:53:33.158Z,42.90
2023-02-09T09:56:03.338Z,55.65
2023-02-09T09:58:31.771Z,47.25
2023-02-09T10:00:59.172Z,47.33
2023-02-09T10:03:26.923Z,50.47
2023-02-09T10:05:55.696Z,44.83
2023-02-09T10:08:32.818Z,58.88
2023-02-09T10:11:10.674Z,50.33
2023-02-09T10:13:40.337Z,45.63
2023-02-09T10:16:16.237Z,46.78
2023-02-09T10:18:44.557Z,54.17
2023-02-09T10:21:13.119Z,48.05
2023-02-09T10:23:42.288Z,49.92
2023-02-09T10:26:31.142Z,49.30
2023-02-09T10:29:01.467Z,48.85
2023-02-09T10:31:40.759Z,52.53
2023-02-09T10:34:27.990Z,45.90
2023-02-09T10:36:56.624Z,45.40
2023-02-09T10:39:26.245Z,49.30
2023-02-09T10:41:54.518Z,45.25
2023-02-09T10:44:41.687Z,50.47
2023-02-09T10:47:11.651Z,49.85
2023-02-09T10:49:40.572Z,46.58
2023-02-09T10:52:13.132Z,47.45
2023-02-09T10:54:42.580Z,47.22
2023-02-09T10:57:29.738Z,46.50
2023-02-09T10:59:58.749Z,49.00
2023-02-09T11:02:43.514Z,51.88
2023-02-09T11:05:30.756Z,51.25
2023-02-09T11:08:02.437Z,55.80
2023-02-09T11:10:31.016Z,51.10
2023-02-09T11:12:59.177Z,47.83
2023-02-09T11:15:28.444Z,46.00
2023-02-09T11:18:06.527Z,51.97
2023-02-09T11:20:36.334Z,46.87
2023-02-09T11:23:23.532Z,45.80
2023-02-09T11:26:10.689Z,49.47
2023-02-09T11:28:57.900Z,43.60
2023-02-09T11:31:46.592Z,47.13
2023-02-09T11:34:19.979Z,40.93
2023-02-09T11:37:07.229Z,49.53
2023-02-09T11:39:54.408Z,43.23
2023-02-09T11:42:45.229Z,47.97
2023-02-09T11:45:32.452Z,44.13
2023-02-09T11:48:04.889Z,44.83
2023-02-09T11:50:52.122Z,43.97
2023-02-09T11:53:39.319Z,41.73
2023-02-09T11:56:08.743Z,49.23
2023-02-09T11:58:56.122Z,47.67
2023-02-09T12:01:43.463Z,43.03
2023-02-09T12:04:30.682Z,47.13
2023-02-09T12:07:03.523Z,45.10
2023-02-09T12:09:37.048Z,41.70
2023-02-09T12:12:16.593Z,38.97
2023-02-09T12:15:03.942Z,42.50
2023-02-09T12:17:37.603Z,43.80
2023-02-09T12:20:05.277Z,43.20
2023-02-09T12:22:52.663Z,48.53
2023-02-09T12:25:21.833Z,42.10
2023-02-09T12:28:09.081Z,43.53
2023-02-09T12:30:56.368Z,42.20
2023-02-09T12:33:43.569Z,48.67
2023-02-09T12:36:30.791Z,47.30
2023-02-09T12:39:23.845Z,52.97
2023-02-09T12:42:11.257Z,51.47
2023-02-09T12:44:39.326Z,48.17
2023-02-09T12:47:26.580Z,50.97
2023-02-09T12:50:02.800Z,57.00
2023-02-09T12:52:30.131Z,43.92
2023-02-09T12:54:57.587Z,51.38
2023-02-09T12:57:46.672Z,55.13
2023-02-09T13:00:34.619Z,51.20
2023-02-09T13:03:08.055Z,47.95
2023-02-09T13:05:38.933Z,47.10
2023-02-09T13:08:26.229Z,47.08
2023-02-09T13:11:13.387Z,50.92
2023-02-09T13:14:03.099Z,51.20
2023-02-09T13:16:50.335Z,51.53
2023-02-09T13:19:24.709Z,49.70
2023-02-09T13:22:11.944Z,44.60
2023-02-09T13:24:44.998Z,52.90
2023-02-09T13:27:20.790Z,45.47
2023-02-09T13:29:56.647Z,51.83
2023-02-09T13:32:43.863Z,48.28
2023-02-09T13:35:31.036Z,44.42
2023-02-09T13:37:59.555Z,49.55
2023-02-09T13:40:28.514Z,47.30
2023-02-09T13:43:15.749Z,48.90
2023-02-09T13:45:51.661Z,51.05
2023-02-09T13:48:36.233Z,59.65
2023-02-09T13:51:05.093Z,53.28
2023-02-09T13:53:32.580Z,52.13
2023-02-09T13:56:01.307Z,56.55
2023-02-09T13:58:30.287Z,51.85
2023-02-09T14:01:03.748Z,51.30
2023-02-09T14:03:33.072Z,45.95
2023-02-09T14:06:20.502Z,51.47
2023-02-09T14:08:49.033Z,45.85
2023-02-09T14:11:42.368Z,47.85
2023-02-09T14:14:49.971Z,54.55
2023-02-09T14:17:26.342Z,53.17
2023-02-09T14:19:54.866Z,46.80
2023-02-09T14:22:38.975Z,43.25
2023-02-09T14:25:18.721Z,43.17
2023-02-09T14:27:47.783Z,44.92
2023-02-09T14:30:17.825Z,46.60
2023-02-09T14:32:48.295Z,51.33
2023-02-09T14:35:33.606Z,54.95
2023-02-09T14:38:02.520Z,56.72
2023-02-09T14:40:49.782Z,54.15
2023-02-09T14:43:27.487Z,54.75
2023-02-09T14:46:02.210Z,52.03
2023-02-09T14:48:31.254Z,51.60
2023-02-09T14:50:59.944Z,49.13
2023-02-09T14:53:29.061Z,51.38
2023-02-09T14:55:56.953Z,50.85
2023-02-09T14:58:25.805Z,54.00
2023-02-09T15:00:53.942Z,53.85
2023-02-09T15:03:21.403Z,50.97
2023-02-09T15:05:49.757Z,47.88
2023-02-09T15:08:20.019Z,52.55
2023-02-09T15:10:50.155Z,58.03
2023-02-09T15:13:17.600Z,43.25
2023-02-09T15:15:46.517Z,51.92
2023-02-09T15:18:18.919Z,50.45
2023-02-09T15:20:46.684Z,52.47
2023-02-09T15:23:14.104Z,52.10
2023-02-09T15:25:43.789Z,49.88
2023-02-09T15:28:16.899Z,51.92
2023-02-09T15:30:44.465Z,63.50
2023-02-09T15:33:13.205Z,58.90
2023-02-09T15:35:41.453Z,56.10
2023-02-09T15:38:11.110Z,53.53
2023-02-09T15:41:03.089Z,56.55
2023-02-09T15:43:50.500Z,46.03
2023-02-09T15:46:38.018Z,51.65
2023-02-09T15:49:07.354Z,50.83
2023-02-09T15:51:36.694Z,52.70
2023-02-09T15:54:06.344Z,53.00
2023-02-09T15:56:34.303Z,52.53
2023-02-09T15:59:03.856Z,53.10
2023-02-09T16:01:34.034Z,54.78
2023-02-09T16:04:13.096Z,52.13
2023-02-09T16:06:41.247Z,45.03
2023-02-09T16:09:11.414Z,51.33
2023-02-09T16:11:40.739Z,52.20
2023-02-09T16:14:15.201Z,45.00
2023-02-09T16:16:44.221Z,52.72
2023-02-09T16:19:11.707Z,43.10
2023-02-09T16:21:39.618Z,47.30
2023-02-09T16:24:07.289Z,48.88
2023-02-09T16:26:34.903Z,49.42
2023-02-09T16:29:02.329Z,44.92
2023-02-09T16:31:30.409Z,51.95
2023-02-09T16:33:57.971Z,47.95
2023-02-09T16:36:27.238Z,47.53
2023-02-09T16:38:54.607Z,51.13
2023-02-09T16:41:43.259Z,48.63
2023-02-09T16:44:16.693Z,46.75
2023-02-09T16:46:44.665Z,44.63
2023-02-09T16:49:20.522Z,50.00
2023-02-09T16:51:47.864Z,43.30
2023-02-09T16:54:15.407Z,47.95
2023-02-09T16:56:53.642Z,52.20
2023-02-09T16:59:21.288Z,47.35
2023-02-09T17:01:49.161Z,44.38
2023-02-09T17:04:16.609Z,41.83
2023-02-09T17:06:45.112Z,43.25
2023-02-09T17:09:15.889Z,41.15
2023-02-09T17:11:46.084Z,44.88
2023-02-09T17:14:13.472Z,40.20
2023-02-09T17:16:44.677Z,38.83
2023-02-09T17:19:15.374Z,44.38
2023-02-09T17:21:43.242Z,46.88
2023-02-09T17:24:13.670Z,44.85
2023-02-09T17:26:41.145Z,42.58
2023-02-09T17:29:09.029Z,47.72
2023-02-09T17:31:52.036Z,39.88
2023-02-09T17:34:22.128Z,43.88
2023-02-09T17:36:49.530Z,42.33
2023-02-09T17:39:19.182Z,47.58
2023-02-09T17:41:48.602Z,43.83
2023-02-09T17:44:31.911Z,42.25
2023-02-09T17:47:03.502Z,42.67
2023-02-09T17:49:30.979Z,36.97
2023-02-09T17:51:58.342Z,41.65
2023-02-09T17:54:25.766Z,36.75
2023-02-09T17:56:53.151Z,35.30
2023-02-09T17:59:21.370Z,42.50
2023-02-09T18:01:50.620Z,44.17
2023-02-09T18:04:20.310Z,41.03
2023-02-09T18:06:47.778Z,37.13
2023-02-09T18:09:22.361Z,38.30
2023-02-09T18:12:09.641Z,43.33
2023-02-09T18:14:37.002Z,37.92
2023-02-09T18:17:04.456Z,36.28
2023-02-09T18:19:33.092Z,41.25
2023-02-09T18:22:01.310Z,43.72
2023-02-09T18:24:30.334Z,34.03
2023-02-09T18:26:57.697Z,48.15
2023-02-09T18:29:29.442Z,45.88
2023-02-09T18:31:57.760Z,46.35
2023-02-09T18:34:25.326Z,37.80
2023-02-09T18:36:52.708Z,37.88
2023-02-09T18:39:20.142Z,40.88
2023-02-09T18:41:54.073Z,37.13
2023-02-09T18:44:24.563Z,35.38
2023-02-09T18:46:52.060Z,33.42
2023-02-09T18:49:19.466Z,33.42
2023-02-09T18:51:47.041Z,36.97
2023-02-09T18:54:14.435Z,34.03
2023-02-09T18:56:42.092Z,30.77
2023-02-09T18:59:09.403Z,38.60
2023-02-09T19:01:36.977Z,34.47
2023-02-09T19:04:04.451Z,32.03
2023-02-09T19:06:33.463Z,36.38
2023-02-09T19:09:00.933Z,32.20
2023-02-09T19:11:28.324Z,33.13
2023-02-09T19:14:15.540Z,29.48
2023-02-09T19:16:42.942Z,29.60
2023-02-09T19:19:12.442Z,27.95
2023-02-09T19:21:39.873Z,25.35
2023-02-09T19:24:07.411Z,30.25
2023-02-09T19:26:34.914Z,26.83
2023-02-09T19:29:02.296Z,26.17
2023-02-09T19:31:29.792Z,25.27
2023-02-09T19:33:57.826Z,31.08
2023-02-09T19:36:27.984Z,29.88
2023-02-09T19:38:56.190Z,28.90
2023-02-09T19:41:25.498Z,25.52
2023-02-09T19:43:55.442Z,27.50
2023-02-09T19:46:22.918Z,25.05
2023-02-09T19:48:50.304Z,24.23
2023-02-09T19:51:17.847Z,27.75
2023-02-09T19:53:45.303Z,25.70
2023-02-09T19:56:15.894Z,21.45
2023-02-09T19:58:43.892Z,21.70
2023-02-09T20:01:11.753Z,26.05
2023-02-09T20:03:39.370Z,25.50
2023-02-09T20:06:09.071Z,22.52
2023-02-09T20:08:38.231Z,23.40
2023-02-09T20:11:07.193Z,55.10
2023-02-09T20:13:34.732Z,23.70
2023-02-09T20:16:02.368Z,62.95
2023-02-09T20:18:29.714Z,35.10
2023-02-09T20:20:58.405Z,39.67
2023-02-09T20:23:25.822Z,24.33
2023-02-09T20:25:53.231Z,28.05
2023-02-09T20:28:21.329Z,22.70
2023-02-09T20:30:49.136Z,24.60
2023-02-09T20:33:16.912Z,20.25
2023-02-09T20:35:45.864Z,22.65
2023-02-09T20:38:14.382Z,26.83
2023-02-09T20:40:42.986Z,20.05
2023-02-09T20:43:31.347Z,22.63
2023-02-09T20:46:18.767Z,22.88
2023-02-09T20:48:46.173Z,23.33
2023-02-09T20:51:16.049Z,22.83
2023-02-09T20:53:43.442Z,20.70
2023-02-09T20:56:10.861Z,27.35
2023-02-09T20:58:38.262Z,21.23
2023-02-09T21:01:06.500Z,23.42
2023-02-09T21:03:33.965Z,23.45
2023-02-09T21:06:01.359Z,23.48
2023-02-09T21:08:28.883Z,24.63
2023-02-09T21:10:57.029Z,24.42
2023-02-09T21:13:24.496Z,23.23
2023-02-09T21:15:52.123Z,20.88
2023-02-09T21:18:21.474Z,25.00
2023-02-09T21:20:49.702Z,24.75
2023-02-09T21:23:17.297Z,22.33
2023-02-09T21:25:44.851Z,25.17
2023-02-09T21:28:13.077Z,20.05
2023-02-09T21:30:42.879Z,21.38
2023-02-09T21:33:10.534Z,20.40
2023-02-09T21:35:41.675Z,18.52
2023-02-09T21:38:09.098Z,18.50
2023-02-09T21:40:36.510Z,24.33
2023-02-09T21:43:03.909Z,17.92
2023-02-09T21:45:31.398Z,21.98
2023-02-09T21:47:59.879Z,19.02
2023-02-09T21:50:27.381Z,20.55
2023-02-09T21:52:54.828Z,18.30
2023-02-09T21:55:24.717Z,22.05
2023-02-09T21:57:52.145Z,20.75
2023-02-09T22:00:19.592Z,27.00
2023-02-09T22:02:47.092Z,23.00
2023-02-09T22:05:14.457Z,20.98
2023-02-09T22:07:41.883Z,21.60
2023-02-09T22:10:09.281Z,18.08
2023-02-09T22:12:38.656Z,24.00
2023-02-09T22:15:06.414Z,22.95
2023-02-09T22:17:33.873Z,22.17
2023-02-09T22:20:01.356Z,23.00
2023-02-09T22:22:28.749Z,22.67
2023-02-09T22:24:59.003Z,24.17
2023-02-09T22:27:26.702Z,18.05
2023-02-09T22:29:54.089Z,22.38
2023-02-09T22:32:21.476Z,23.17
2023-02-09T22:34:48.838Z,23.60
2023-02-09T22:37:16.243Z,22.20
2023-02-09T22:39:45.073Z,24.48
2023-02-09T22:42:12.458Z,24.25
2023-02-09T22:44:39.799Z,25.92
2023-02-09T22:47:07.180Z,20.80
2023-02-09T22:49:34.592Z,28.17
2023-02-09T22:52:01.943Z,22.23
2023-02-09T22:54:29.344Z,24.92
2023-02-09T22:56:56.732Z,24.95
2023-02-09T22:59:24.168Z,25.25
2023-02-09T23:01:51.519Z,27.80
2023-02-09T23:04:18.945Z,24.20
2023-02-09T23:06:46.383Z,24.95
2023-02-09T23:09:14.072Z,21.17
2023-02-09T23:11:41.505Z,22.38
2023-02-09T23:14:10.662Z,24.65
2023-02-09T23:16:39.514Z,21.45
2023-02-09T23:19:07.700Z,28.63
2023-02-09T23:21:36.466Z,30.70
2023-02-09T23:24:04.396Z,25.05
2023-02-09T23:26:32.009Z,25.35
2023-02-09T23:29:00.791Z,29.98
2023-02-09T23:31:28.731Z,26.73
2023-02-09T23:33:56.247Z,23.58
2023-02-09T23:36:24.718Z,24.85
2023-02-09T23:38:56.158Z,25.35
2023-02-09T23:41:23.753Z,25.08
2023-02-09T23:43:51.544Z,28.77
2023-02-09T23:46:20.277Z,26.23
2023-02-09T23:48:48.021Z,24.27
2023-02-09T23:51:18.411Z,28.48
2023-02-09T23:53:46.401Z,28.50
2023-02-09T23:56:14.350Z,26.73
2023-02-09T23:58:43.033Z,24.73
